• pl
  • eng

Awiacja
WIADOMOŚCI
ostatnia aktualizacja: 17.04.2020 19:04
Szanowni Państwo,

mając na uwadze sytuację związaną z pandemią wywołaną koronawirusem SARS-Cov-2 oraz w trosce o bezpieczeństwo Państwa oraz naszych pracowników, IMGW-PIB podjął decyzję o przeniesieniu kolejnej edycji Szkoły Meteorologii Lotniczej na przyszły rok. W tej chwili podanie dokładnego terminu szkoły nie jest możliwe, ale jak tylko będzie znany zostanie ogłoszony na naszych stronach internetowych, do których śledzenia serdecznie zapraszamy.

TAF dla lotnisk wojskowych 16:30 10.07.2020

TAF EPCE 101400Z 1015/1024 17006KT 9999 SCT012 BKN030 TEMPO 1015/1019
5000 SHRA BKN012CB BECMG 1019/1021 27010KT PROB30 1020/1024
27015G25KT=

TAF EPDA 101400Z 1015/1024 VRB03KT 9999 SCT015 BKN050 TEMPO 1015/1024
5000 SHRA BR BKN015CB PROB30 TEMPO 1015/1020 VRB15G25KT 3000
TSRA BKN010CB BECMG 1017/1019 27012KT PROB30 TEMPO 1018/1024
27015G25KT=

TAF EPDE 101400Z 1015/1024 18010KT CAVOK
BECMG 1021/1023 24008KT

TAF EPKS 101400Z 1015/1024 20010KT 9999 BKN033
TEMPO 1015/1024 23015G25KT 5000 SHRA BKN015CB
PROB30 TEMPO 1015/1018 27015G30KT TSRA OVC013CB=

TAF EPKS 302300Z 3100/3109 24008KT CAVOK
TEMPO 0103/0109 SCT033=

TAF EPLK 101400Z 1015/1024 22006KT CAVOK
PROB30 TEMPO 1015/1024 VRB15G25KT 4000 SHRA TSRA SCT010 BKN030CB=

TAF EPLY 101400Z 1015/1024 21012KT CAVOK TEMPO 1015/1021 -SHRA
BKN025CB PROB30 TEMPO 1015/1020 24015G30KT 4000 TSRA BKN015CB=

TAF EPMB 101400Z 1015/1024 12006KT 9999 BKN040 TEMPO 1015/1021 3000
TSRA SHRA BKN015CB=

TAF EPMM 101400Z 1015/1024 23010KT 9999 BKN045
TEMPO 1015/1024 5000 -SHRA BKN013CB
PROB30 TEMPO 1015/1024 2000 TSRA BKN010CB=

TAF COR EPMM 302000Z 3021/0106 23006KT CAVOK=
616
FCPL98 SOPR 301700 CCD

TAF EPOK 101400Z 1015/1024 15010KT 9999 BKN025 TEMPO 1015/1019 5000
SHRA SCT010 BKN020CB BECMG 1019/1021 27014KT TEMPO 1021/1024
27018G30KT=

TAF EPPW 101400Z 1015/1024 25012KT 9999 SCT035 TEMPO 1015/1019
25015G25KT 5000 SHRA BKN020CB PROB30 TEMPO 1015/1018 VRB18G32KT
3000 TSRA SCT007 BKN016CB BECMG1021/1024 BKN016=

TAF EPRA 101400Z 1015/1024 19010KT CAVOK=

TAF EPSN 101400Z 1015/1024 16008KT 9999 SCT020 BKN040
TEMPO 1015/1020 5000 SHRA BKN015CB
PROB30 TEMPO 1015/1018 3000 TSRA SCT005 BKN012CB=

TAF EPTM 101400Z 1015/1024 21008KT CAVOK PROB30 TEMPO 1015/1021
VRB15G25KT 5000 SHRA BKN030CB =
Awiacja.imgw.pl jest pogodowym serwisem informacyjnym
Instytutu Meteorologii i Gospodarki Wodnej Państwowego Instytutu Badawczego.
Copyright IMGW PIB 2009-2019© Wszelkie prawa zastrzeżone.